sensor_id;sensor_type;location;lat;lon;timestamp;pressure;altitude;pressure_sealevel;temperature;humidity
11621;BME280;5866;49.094;11.900;2023-05-25T00:02:02;96627.75;;;10.56;95.47
11621;BME280;5866;49.094;11.900;2023-05-25T00:04:31;96632.72;;;10.51;94.00
11621;BME280;5866;49.094;11.900;2023-05-25T00:07:00;96640.34;;;10.54;94.18
11621;BME280;5866;49.094;11.900;2023-05-25T00:09:29;96648.06;;;10.65;94.15
11621;BME280;5866;49.094;11.900;2023-05-25T00:11:56;96648.63;;;10.51;94.80
11621;BME280;5866;49.094;11.900;2023-05-25T00:14:25;96631.28;;;10.38;95.66
11621;BME280;5866;49.094;11.900;2023-05-25T00:16:52;96627.25;;;10.34;97.42
11621;BME280;5866;49.094;11.900;2023-05-25T00:19:20;96635.25;;;10.60;95.54
11621;BME280;5866;49.094;11.900;2023-05-25T00:21:48;96635.78;;;10.81;93.54
11621;BME280;5866;49.094;11.900;2023-05-25T00:24:16;96627.59;;;10.75;93.82
11621;BME280;5866;49.094;11.900;2023-05-25T00:26:45;96628.03;;;10.88;92.89
11621;BME280;5866;49.094;11.900;2023-05-25T00:29:12;96633.84;;;10.66;93.45
11621;BME280;5866;49.094;11.900;2023-05-25T00:31:40;96627.63;;;10.57;94.94
11621;BME280;5866;49.094;11.900;2023-05-25T00:34:07;96626.84;;;10.65;95.67
11621;BME280;5866;49.094;11.900;2023-05-25T00:36:35;96609.13;;;10.48;96.95
11621;BME280;5866;49.094;11.900;2023-05-25T00:39:03;96606.53;;;10.56;97.31
11621;BME280;5866;49.094;11.900;2023-05-25T00:41:31;96604.59;;;10.58;95.56
11621;BME280;5866;49.094;11.900;2023-05-25T00:44:01;96603.66;;;10.67;96.40
11621;BME280;5866;49.094;11.900;2023-05-25T00:46:29;96610.53;;;10.95;93.82
11621;BME280;5866;49.094;11.900;2023-05-25T00:48:59;96614.28;;;11.10;91.41
11621;BME280;5866;49.094;11.900;2023-05-25T00:51:28;96616.50;;;10.97;91.62
11621;BME280;5866;49.094;11.900;2023-05-25T00:53:58;96615.94;;;11.11;91.06
11621;BME280;5866;49.094;11.900;2023-05-25T00:56:29;96613.13;;;10.87;92.48
11621;BME280;5866;49.094;11.900;2023-05-25T00:59:03;96607.81;;;10.87;92.60
11621;BME280;5866;49.094;11.900;2023-05-25T01:01:34;96611.06;;;10.81;94.89
11621;BME280;5866;49.094;11.900;2023-05-25T01:04:06;96604.72;;;10.74;96.46
11621;BME280;5866;49.094;11.900;2023-05-25T01:06:35;96606.13;;;10.86;95.04
11621;BME280;5866;49.094;11.900;2023-05-25T01:09:07;96602.06;;;10.74;96.51
11621;BME280;5866;49.094;11.900;2023-05-25T01:11:39;96607.22;;;10.75;97.81
11621;BME280;5866;49.094;11.900;2023-05-25T01:14:09;96611.22;;;10.97;97.03
11621;BME280;5866;49.094;11.900;2023-05-25T01:16:38;96603.06;;;10.98;96.47
11621;BME280;5866;49.094;11.900;2023-05-25T01:19:05;96609.28;;;11.07;94.15
11621;BME280;5866;49.094;11.900;2023-05-25T01:21:38;96603.03;;;11.16;93.68
11621;BME280;5866;49.094;11.900;2023-05-25T01:24:12;96603.00;;;11.08;94.20
11621;BME280;5866;49.094;11.900;2023-05-25T01:26:46;96606.88;;;10.96;95.29
11621;BME280;5866;49.094;11.900;2023-05-25T01:29:16;96605.25;;;10.77;97.46
11621;BME280;5866;49.094;11.900;2023-05-25T01:31:46;96608.41;;;10.81;98.49
11621;BME280;5866;49.094;11.900;2023-05-25T01:34:14;96605.41;;;10.76;97.85
11621;BME280;5866;49.094;11.900;2023-05-25T01:36:44;96611.41;;;11.29;94.69
11621;BME280;5866;49.094;11.900;2023-05-25T01:39:12;96608.28;;;11.34;93.62
11621;BME280;5866;49.094;11.900;2023-05-25T01:41:39;96606.84;;;11.13;94.43
11621;BME280;5866;49.094;11.900;2023-05-25T01:44:07;96602.25;;;10.98;95.41
11621;BME280;5866;49.094;11.900;2023-05-25T01:46:36;96600.88;;;10.94;98.55
11621;BME280;5866;49.094;11.900;2023-05-25T01:49:13;96603.53;;;10.94;97.29
11621;BME280;5866;49.094;11.900;2023-05-25T01:51:51;96609.50;;;10.70;99.38
11621;BME280;5866;49.094;11.900;2023-05-25T01:54:27;96611.25;;;10.62;100.00
11621;BME280;5866;49.094;11.900;2023-05-25T01:56:57;96600.44;;;10.55;100.00
11621;BME280;5866;49.094;11.900;2023-05-25T01:59:27;96591.41;;;10.66;100.00
11621;BME280;5866;49.094;11.900;2023-05-25T02:01:55;96603.22;;;10.54;100.00
11621;BME280;5866;49.094;11.900;2023-05-25T02:04:25;96596.47;;;10.42;100.00
11621;BME280;5866;49.094;11.900;2023-05-25T02:06:54;96602.75;;;10.58;100.00
11621;BME280;5866;49.094;11.900;2023-05-25T02:09:21;96605.56;;;10.74;100.00
11621;BME280;5866;49.094;11.900;2023-05-25T02:11:49;96604.22;;;10.96;100.00
11621;BME280;5866;49.094;11.900;2023-05-25T02:14:16;96608.41;;;10.81;100.00
11621;BME280;5866;49.094;11.900;2023-05-25T02:16:44;96611.16;;;10.89;100.00
11621;BME280;5866;49.094;11.900;2023-05-25T02:19:12;96607.25;;;10.58;100.00
11621;BME280;5866;49.094;11.900;2023-05-25T02:21:40;96608.38;;;10.55;100.00
11621;BME280;5866;49.094;11.900;2023-05-25T02:24:09;96594.84;;;10.84;100.00
11621;BME280;5866;49.094;11.900;2023-05-25T02:26:37;96595.53;;;10.68;100.00
11621;BME280;5866;49.094;11.900;2023-05-25T02:29:05;96594.00;;;10.58;100.00
11621;BME280;5866;49.094;11.900;2023-05-25T02:31:33;96590.94;;;10.53;100.00
11621;BME280;5866;49.094;11.900;2023-05-25T02:34:00;96585.53;;;10.62;100.00
11621;BME280;5866;49.094;11.900;2023-05-25T02:36:28;96587.53;;;10.60;100.00
11621;BME280;5866;49.094;11.900;2023-05-25T02:38:57;96592.59;;;10.54;100.00
11621;BME280;5866;49.094;11.900;2023-05-25T02:41:26;96592.00;;;10.42;100.00
11621;BME280;5866;49.094;11.900;2023-05-25T02:43:53;96594.22;;;10.29;100.00
11621;BME280;5866;49.094;11.900;2023-05-25T02:46:21;96595.34;;;10.26;100.00
11621;BME280;5866;49.094;11.900;2023-05-25T02:48:49;96599.94;;;10.24;100.00
11621;BME280;5866;49.094;11.900;2023-05-25T02:51:17;96598.59;;;10.20;100.00
11621;BME280;5866;49.094;11.900;2023-05-25T02:53:44;96606.69;;;10.54;100.00
11621;BME280;5866;49.094;11.900;2023-05-25T02:56:12;96608.59;;;10.44;100.00
11621;BME280;5866;49.094;11.900;2023-05-25T02:58:41;96606.72;;;10.36;100.00
11621;BME280;5866;49.094;11.900;2023-05-25T03:01:08;96611.78;;;10.48;100.00
11621;BME280;5866;49.094;11.900;2023-05-25T03:03:44;96614.50;;;10.56;100.00
11621;BME280;5866;49.094;11.900;2023-05-25T03:06:13;96614.28;;;10.31;100.00
11621;BME280;5866;49.094;11.900;2023-05-25T03:08:41;96614.00;;;10.34;100.00
11621;BME280;5866;49.094;11.900;2023-05-25T03:11:08;96623.06;;;10.50;100.00
11621;BME280;5866;49.094;11.900;2023-05-25T03:13:36;96619.59;;;10.49;100.00
11621;BME280;5866;49.094;11.900;2023-05-25T03:16:05;96620.66;;;10.38;100.00
11621;BME280;5866;49.094;11.900;2023-05-25T03:18:33;96625.72;;;10.50;100.00
11621;BME280;5866;49.094;11.900;2023-05-25T03:21:00;96625.97;;;10.38;100.00
11621;BME280;5866;49.094;11.900;2023-05-25T03:23:28;96629.56;;;10.73;100.00
11621;BME280;5866;49.094;11.900;2023-05-25T03:25:55;96630.41;;;10.73;100.00
11621;BME280;5866;49.094;11.900;2023-05-25T03:28:23;96634.06;;;10.55;100.00
11621;BME280;5866;49.094;11.900;2023-05-25T03:30:51;96632.78;;;10.59;100.00
11621;BME280;5866;49.094;11.900;2023-05-25T03:33:20;96627.38;;;10.68;100.00
11621;BME280;5866;49.094;11.900;2023-05-25T03:35:47;96625.97;;;10.38;100.00
11621;BME280;5866;49.094;11.900;2023-05-25T03:38:15;96625.34;;;10.45;100.00
11621;BME280;5866;49.094;11.900;2023-05-25T03:40:42;96620.59;;;10.30;100.00
11621;BME280;5866;49.094;11.900;2023-05-25T03:43:10;96620.19;;;10.25;100.00
11621;BME280;5866;49.094;11.900;2023-05-25T03:45:37;96624.72;;;10.33;100.00
11621;BME280;5866;49.094;11.900;2023-05-25T03:48:05;96625.34;;;10.45;100.00
11621;BME280;5866;49.094;11.900;2023-05-25T03:50:34;96638.69;;;10.53;100.00
11621;BME280;5866;49.094;11.900;2023-05-25T03:53:01;96624.53;;;10.44;100.00
11621;BME280;5866;49.094;11.900;2023-05-25T03:55:29;96627.69;;;10.30;100.00
11621;BME280;5866;49.094;11.900;2023-05-25T03:57:57;96632.91;;;10.39;100.00
11621;BME280;5866;49.094;11.900;2023-05-25T04:00:25;96631.41;;;10.55;100.00
11621;BME280;5866;49.094;11.900;2023-05-25T04:02:53;96633.00;;;10.48;100.00
11621;BME280;5866;49.094;11.900;2023-05-25T04:05:22;96639.22;;;10.38;100.00
11621;BME280;5866;49.094;11.900;2023-05-25T04:07:51;96638.00;;;10.33;100.00
11621;BME280;5866;49.094;11.900;2023-05-25T04:10:19;96631.94;;;10.58;100.00
11621;BME280;5866;49.094;11.900;2023-05-25T04:12:46;96632.47;;;10.62;100.00
11621;BME280;5866;49.094;11.900;2023-05-25T04:15:14;96641.88;;;10.74;100.00
11621;BME280;5866;49.094;11.900;2023-05-25T04:17:42;96646.94;;;10.85;100.00
11621;BME280;5866;49.094;11.900;2023-05-25T04:20:10;96642.94;;;11.06;100.00
11621;BME280;5866;49.094;11.900;2023-05-25T04:22:37;96642.09;;;10.80;100.00
11621;BME280;5866;49.094;11.900;2023-05-25T04:25:07;96649.69;;;10.58;100.00
11621;BME280;5866;49.094;11.900;2023-05-25T04:27:35;96650.38;;;10.60;100.00
11621;BME280;5866;49.094;11.900;2023-05-25T04:30:04;96649.13;;;10.54;100.00
11621;BME280;5866;49.094;11.900;2023-05-25T04:32:31;96652.72;;;10.80;100.00
11621;BME280;5866;49.094;11.900;2023-05-25T04:35:03;96644.75;;;11.24;100.00
11621;BME280;5866;49.094;11.900;2023-05-25T04:37:30;96653.75;;;11.31;100.00
11621;BME280;5866;49.094;11.900;2023-05-25T04:39:58;96651.31;;;11.37;100.00
11621;BME280;5866;49.094;11.900;2023-05-25T04:42:28;96649.38;;;11.47;99.07
11621;BME280;5866;49.094;11.900;2023-05-25T04:44:56;96646.41;;;11.25;100.00
11621;BME280;5866;49.094;11.900;2023-05-25T04:47:24;96655.75;;;11.11;100.00
11621;BME280;5866;49.094;11.900;2023-05-25T04:49:52;96650.31;;;11.38;100.00
11621;BME280;5866;49.094;11.900;2023-05-25T04:52:19;96657.75;;;11.09;100.00
11621;BME280;5866;49.094;11.900;2023-05-25T04:54:47;96657.22;;;11.57;100.00
11621;BME280;5866;49.094;11.900;2023-05-25T04:57:14;96654.34;;;11.68;96.43
11621;BME280;5866;49.094;11.900;2023-05-25T04:59:43;96661.69;;;11.56;97.36
11621;BME280;5866;49.094;11.900;2023-05-25T05:02:11;96658.47;;;11.19;99.43
11621;BME280;5866;49.094;11.900;2023-05-25T05:04:38;96659.75;;;11.33;100.00
11621;BME280;5866;49.094;11.900;2023-05-25T05:07:06;96664.47;;;11.98;96.49
11621;BME280;5866;49.094;11.900;2023-05-25T05:09:34;96659.88;;;11.82;94.38
11621;BME280;5866;49.094;11.900;2023-05-25T05:12:02;96664.94;;;11.93;94.57
11621;BME280;5866;49.094;11.900;2023-05-25T05:14:29;96663.16;;;12.84;87.51
11621;BME280;5866;49.094;11.900;2023-05-25T05:16:58;96659.34;;;13.43;82.44
11621;BME280;5866;49.094;11.900;2023-05-25T05:19:26;96663.44;;;13.78;78.71
11621;BME280;5866;49.094;11.900;2023-05-25T05:21:54;96662.28;;;14.19;75.48
11621;BME280;5866;49.094;11.900;2023-05-25T05:24:22;96660.25;;;14.29;72.77
11621;BME280;5866;49.094;11.900;2023-05-25T05:26:49;96668.94;;;15.07;69.80
11621;BME280;5866;49.094;11.900;2023-05-25T05:29:24;96672.63;;;15.66;64.79
11621;BME280;5866;49.094;11.900;2023-05-25T05:31:53;96673.72;;;14.66;69.49
11621;BME280;5866;49.094;11.900;2023-05-25T05:34:23;96685.41;;;14.43;70.51
11621;BME280;5866;49.094;11.900;2023-05-25T05:36:51;96680.00;;;13.57;75.63
11621;BME280;5866;49.094;11.900;2023-05-25T05:39:24;96678.53;;;13.93;75.24
11621;BME280;5866;49.094;11.900;2023-05-25T05:41:52;96690.78;;;14.35;73.64
11621;BME280;5866;49.094;11.900;2023-05-25T05:44:20;96685.13;;;14.60;70.81
11621;BME280;5866;49.094;11.900;2023-05-25T05:46:51;96676.94;;;14.62;69.46
11621;BME280;5866;49.094;11.900;2023-05-25T05:49:26;96675.19;;;15.22;68.31
11621;BME280;5866;49.094;11.900;2023-05-25T05:51:54;96677.66;;;15.24;66.91
11621;BME280;5866;49.094;11.900;2023-05-25T05:54:22;96684.00;;;15.82;64.66
11621;BME280;5866;49.094;11.900;2023-05-25T05:56:50;96687.63;;;16.04;62.62
11621;BME280;5866;49.094;11.900;2023-05-25T05:59:19;96689.75;;;16.23;62.76
11621;BME280;5866;49.094;11.900;2023-05-25T06:01:47;96680.56;;;16.32;62.76
11621;BME280;5866;49.094;11.900;2023-05-25T06:04:17;96691.72;;;15.77;61.75
11621;BME280;5866;49.094;11.900;2023-05-25T06:06:46;96673.50;;;16.10;61.90
11621;BME280;5866;49.094;11.900;2023-05-25T06:09:13;96682.81;;;16.14;62.79
11621;BME280;5866;49.094;11.900;2023-05-25T06:11:41;96671.34;;;15.62;63.68
11621;BME280;5866;49.094;11.900;2023-05-25T06:14:08;96679.91;;;16.45;60.88
11621;BME280;5866;49.094;11.900;2023-05-25T06:16:36;96675.03;;;16.19;61.02
11621;BME280;5866;49.094;11.900;2023-05-25T06:19:04;96678.97;;;15.65;63.58
11621;BME280;5866;49.094;11.900;2023-05-25T06:21:31;96689.16;;;15.99;62.45
11621;BME280;5866;49.094;11.900;2023-05-25T06:24:00;96678.53;;;16.34;61.44
11621;BME280;5866;49.094;11.900;2023-05-25T06:26:28;96681.06;;;17.50;57.23
11621;BME280;5866;49.094;11.900;2023-05-25T06:28:55;96677.78;;;17.33;57.13
11621;BME280;5866;49.094;11.900;2023-05-25T06:31:23;96672.09;;;18.25;56.22
11621;BME280;5866;49.094;11.900;2023-05-25T06:33:51;96682.16;;;17.83;55.61
11621;BME280;5866;49.094;11.900;2023-05-25T06:36:19;96679.84;;;18.07;53.92
11621;BME280;5866;49.094;11.900;2023-05-25T06:38:47;96680.59;;;17.67;55.72
11621;BME280;5866;49.094;11.900;2023-05-25T06:41:15;96681.59;;;17.66;54.77
11621;BME280;5866;49.094;11.900;2023-05-25T06:43:44;96693.38;;;17.23;56.07
11621;BME280;5866;49.094;11.900;2023-05-25T06:46:13;96695.09;;;17.09;56.75
11621;BME280;5866;49.094;11.900;2023-05-25T06:48:43;96687.53;;;17.55;55.27
11621;BME280;5866;49.094;11.900;2023-05-25T06:51:11;96684.09;;;17.95;54.84
11621;BME280;5866;49.094;11.900;2023-05-25T06:53:39;96701.63;;;17.91;53.91
11621;BME280;5866;49.094;11.900;2023-05-25T06:56:06;96681.81;;;17.92;54.33
11621;BME280;5866;49.094;11.900;2023-05-25T06:58:35;96682.38;;;17.60;55.33
11621;BME280;5866;49.094;11.900;2023-05-25T07:01:03;96695.06;;;18.00;55.26
11621;BME280;5866;49.094;11.900;2023-05-25T07:03:31;96698.75;;;18.61;52.47
11621;BME280;5866;49.094;11.900;2023-05-25T07:05:59;96697.28;;;18.18;54.73
11621;BME280;5866;49.094;11.900;2023-05-25T07:08:26;96697.75;;;18.75;52.57
11621;BME280;5866;49.094;11.900;2023-05-25T07:10:54;96698.09;;;18.53;53.11
11621;BME280;5866;49.094;11.900;2023-05-25T07:13:21;96697.75;;;18.00;54.84
11621;BME280;5866;49.094;11.900;2023-05-25T07:15:50;96702.28;;;18.00;56.03
11621;BME280;5866;49.094;11.900;2023-05-25T07:18:18;96712.81;;;18.01;54.56
11621;BME280;5866;49.094;11.900;2023-05-25T07:20:46;96717.75;;;17.49;56.28
11621;BME280;5866;49.094;11.900;2023-05-25T07:23:14;96711.34;;;18.61;53.89
11621;BME280;5866;49.094;11.900;2023-05-25T07:25:41;96708.34;;;18.83;53.12
11621;BME280;5866;49.094;11.900;2023-05-25T07:28:09;96707.69;;;19.35;50.53
11621;BME280;5866;49.094;11.900;2023-05-25T07:30:37;96709.50;;;18.61;53.05
11621;BME280;5866;49.094;11.900;2023-05-25T07:33:05;96699.63;;;19.48;50.22
11621;BME280;5866;49.094;11.900;2023-05-25T07:35:33;96699.00;;;19.59;50.28
11621;BME280;5866;49.094;11.900;2023-05-25T07:38:02;96705.84;;;20.21;50.03
11621;BME280;5866;49.094;11.900;2023-05-25T07:40:30;96715.16;;;19.99;48.65
11621;BME280;5866;49.094;11.900;2023-05-25T07:42:58;96713.34;;;20.76;47.70
11621;BME280;5866;49.094;11.900;2023-05-25T07:45:25;96714.72;;;21.05;48.35
11621;BME280;5866;49.094;11.900;2023-05-25T07:47:53;96709.63;;;20.71;47.13
11621;BME280;5866;49.094;11.900;2023-05-25T07:50:22;96715.72;;;20.97;47.02
11621;BME280;5866;49.094;11.900;2023-05-25T07:52:49;96722.09;;;21.16;46.70
11621;BME280;5866;49.094;11.900;2023-05-25T07:55:18;96722.72;;;20.67;47.44
11621;BME280;5866;49.094;11.900;2023-05-25T07:57:45;96718.22;;;21.36;47.44
11621;BME280;5866;49.094;11.900;2023-05-25T08:00:13;96715.94;;;20.45;47.88
11621;BME280;5866;49.094;11.900;2023-05-25T08:02:41;96715.53;;;20.41;47.94
11621;BME280;5866;49.094;11.900;2023-05-25T08:05:09;96723.44;;;20.94;47.22
11621;BME280;5866;49.094;11.900;2023-05-25T08:07:38;96727.81;;;20.88;46.09
11621;BME280;5866;49.094;11.900;2023-05-25T08:10:08;96714.97;;;20.84;47.47
11621;BME280;5866;49.094;11.900;2023-05-25T08:12:36;96721.75;;;20.93;47.11
11621;BME280;5866;49.094;11.900;2023-05-25T08:15:15;96729.66;;;21.39;45.62
11621;BME280;5866;49.094;11.900;2023-05-25T08:17:43;96731.19;;;21.59;46.13
11621;BME280;5866;49.094;11.900;2023-05-25T08:20:11;96726.94;;;20.43;46.96
11621;BME280;5866;49.094;11.900;2023-05-25T08:22:40;96733.91;;;21.21;46.09
11621;BME280;5866;49.094;11.900;2023-05-25T08:25:08;96730.69;;;20.93;46.43
11621;BME280;5866;49.094;11.900;2023-05-25T08:27:36;96736.88;;;21.13;47.01
11621;BME280;5866;49.094;11.900;2023-05-25T08:30:05;96718.75;;;21.83;44.57
11621;BME280;5866;49.094;11.900;2023-05-25T08:32:33;96728.81;;;22.00;44.30
11621;BME280;5866;49.094;11.900;2023-05-25T08:35:01;96718.28;;;22.17;43.47
11621;BME280;5866;49.094;11.900;2023-05-25T08:37:30;96723.84;;;20.27;47.23
11621;BME280;5866;49.094;11.900;2023-05-25T08:39:59;96733.50;;;21.18;46.13
11621;BME280;5866;49.094;11.900;2023-05-25T08:42:28;96720.16;;;21.61;45.39
11621;BME280;5866;49.094;11.900;2023-05-25T08:44:56;96728.00;;;21.38;45.62
11621;BME280;5866;49.094;11.900;2023-05-25T08:47:26;96720.94;;;21.36;45.18
11621;BME280;5866;49.094;11.900;2023-05-25T08:49:57;96728.97;;;21.74;44.29
11621;BME280;5866;49.094;11.900;2023-05-25T08:52:28;96728.31;;;22.10;43.66
11621;BME280;5866;49.094;11.900;2023-05-25T08:55:02;96724.44;;;21.99;43.98
11621;BME280;5866;49.094;11.900;2023-05-25T08:57:37;96724.78;;;21.85;44.82
11621;BME280;5866;49.094;11.900;2023-05-25T09:00:13;96725.69;;;22.03;44.57
11621;BME280;5866;49.094;11.900;2023-05-25T09:02:45;96727.50;;;22.09;45.07
11621;BME280;5866;49.094;11.900;2023-05-25T09:05:15;96717.84;;;22.56;42.92
11621;BME280;5866;49.094;11.900;2023-05-25T09:07:44;96715.53;;;23.85;41.31
11621;BME280;5866;49.094;11.900;2023-05-25T09:10:14;96725.56;;;23.43;42.56
11621;BME280;5866;49.094;11.900;2023-05-25T09:12:41;96723.72;;;22.89;42.54
11621;BME280;5866;49.094;11.900;2023-05-25T09:15:10;96731.47;;;23.93;40.13
11621;BME280;5866;49.094;11.900;2023-05-25T09:17:39;96734.50;;;23.85;40.95
11621;BME280;5866;49.094;11.900;2023-05-25T09:20:09;96738.75;;;23.81;40.11
11621;BME280;5866;49.094;11.900;2023-05-25T09:22:39;96729.44;;;23.89;40.65
11621;BME280;5866;49.094;11.900;2023-05-25T09:25:09;96726.16;;;23.45;41.25
11621;BME280;5866;49.094;11.900;2023-05-25T09:27:39;96731.56;;;22.79;43.06
11621;BME280;5866;49.094;11.900;2023-05-25T09:30:08;96733.31;;;23.22;42.01
11621;BME280;5866;49.094;11.900;2023-05-25T09:32:36;96730.78;;;23.27;41.52
11621;BME280;5866;49.094;11.900;2023-05-25T09:35:08;96722.44;;;24.22;40.39
11621;BME280;5866;49.094;11.900;2023-05-25T09:37:36;96732.59;;;24.27;39.20
11621;BME280;5866;49.094;11.900;2023-05-25T09:40:05;96724.03;;;23.77;40.84
11621;BME280;5866;49.094;11.900;2023-05-25T09:42:34;96726.97;;;23.87;39.24
11621;BME280;5866;49.094;11.900;2023-05-25T09:45:04;96730.66;;;23.04;41.88
11621;BME280;5866;49.094;11.900;2023-05-25T09:47:35;96732.47;;;24.10;40.97
11621;BME280;5866;49.094;11.900;2023-05-25T09:50:03;96724.84;;;24.01;40.00
11621;BME280;5866;49.094;11.900;2023-05-25T09:52:31;96726.66;;;24.07;39.41
11621;BME280;5866;49.094;11.900;2023-05-25T09:55:00;96731.59;;;23.57;41.00
11621;BME280;5866;49.094;11.900;2023-05-25T09:57:28;96725.38;;;24.32;41.11
11621;BME280;5866;49.094;11.900;2023-05-25T09:59:56;96738.22;;;23.61;40.78
11621;BME280;5866;49.094;11.900;2023-05-25T10:02:25;96723.88;;;23.72;39.39
11621;BME280;5866;49.094;11.900;2023-05-25T10:04:53;96728.09;;;22.90;41.11
11621;BME280;5866;49.094;11.900;2023-05-25T10:07:21;96725.34;;;23.27;40.96
11621;BME280;5866;49.094;11.900;2023-05-25T10:09:49;96735.38;;;23.56;40.15
11621;BME280;5866;49.094;11.900;2023-05-25T10:12:19;96722.06;;;24.07;39.83
11621;BME280;5866;49.094;11.900;2023-05-25T10:14:49;96730.81;;;24.09;39.72
11621;BME280;5866;49.094;11.900;2023-05-25T10:17:20;96732.06;;;23.24;40.68
11621;BME280;5866;49.094;11.900;2023-05-25T10:19:54;96738.00;;;23.33;40.16
11621;BME280;5866;49.094;11.900;2023-05-25T10:22:25;96737.59;;;23.00;39.62
11621;BME280;5866;49.094;11.900;2023-05-25T10:25:03;96730.06;;;24.02;39.41
11621;BME280;5866;49.094;11.900;2023-05-25T10:27:38;96727.50;;;22.88;40.06
11621;BME280;5866;49.094;11.900;2023-05-25T10:30:07;96737.19;;;23.14;41.38
11621;BME280;5866;49.094;11.900;2023-05-25T10:32:36;96737.19;;;23.14;40.15
11621;BME280;5866;49.094;11.900;2023-05-25T10:35:06;96752.66;;;23.07;41.22
11621;BME280;5866;49.094;11.900;2023-05-25T10:37:36;96739.06;;;24.26;38.12
11621;BME280;5866;49.094;11.900;2023-05-25T10:40:05;96731.03;;;24.42;37.17
11621;BME280;5866;49.094;11.900;2023-05-25T10:42:35;96732.59;;;24.27;38.34
11621;BME280;5866;49.094;11.900;2023-05-25T10:45:05;96739.00;;;23.32;38.36
11621;BME280;5866;49.094;11.900;2023-05-25T10:47:34;96728.25;;;23.73;40.35
11621;BME280;5866;49.094;11.900;2023-05-25T10:50:03;96721.50;;;24.28;38.04
11621;BME280;5866;49.094;11.900;2023-05-25T10:52:33;96723.69;;;23.26;40.98
11621;BME280;5866;49.094;11.900;2023-05-25T10:55:01;96728.56;;;23.06;39.74
11621;BME280;5866;49.094;11.900;2023-05-25T10:57:30;96728.69;;;24.34;37.40
11621;BME280;5866;49.094;11.900;2023-05-25T11:00:02;96722.97;;;23.19;39.53
11621;BME280;5866;49.094;11.900;2023-05-25T11:02:48;96728.19;;;22.84;39.80
11621;BME280;5866;49.094;11.900;2023-05-25T11:05:30;96721.63;;;24.33;38.24
11621;BME280;5866;49.094;11.900;2023-05-25T11:08:00;96726.09;;;24.63;35.41
11621;BME280;5866;49.094;11.900;2023-05-25T11:10:49;96724.31;;;25.59;34.67
11621;BME280;5866;49.094;11.900;2023-05-25T11:13:23;96716.38;;;27.12;34.22
11621;BME280;5866;49.094;11.900;2023-05-25T11:16:29;96725.16;;;26.76;32.80
11621;BME280;5866;49.094;11.900;2023-05-25T11:19:01;96727.25;;;26.36;34.54
11621;BME280;5866;49.094;11.900;2023-05-25T11:21:40;96723.66;;;25.69;34.92
11621;BME280;5866;49.094;11.900;2023-05-25T11:24:14;96726.13;;;26.15;33.57
11621;BME280;5866;49.094;11.900;2023-05-25T11:26:53;96723.97;;;26.34;32.95
11621;BME280;5866;49.094;11.900;2023-05-25T11:29:21;96722.00;;;27.49;31.37
11621;BME280;5866;49.094;11.900;2023-05-25T11:31:52;96724.53;;;25.30;35.81
11621;BME280;5866;49.094;11.900;2023-05-25T11:34:21;96722.38;;;25.43;35.34
11621;BME280;5866;49.094;11.900;2023-05-25T11:36:53;96732.13;;;25.16;34.95
11621;BME280;5866;49.094;11.900;2023-05-25T11:39:22;96718.78;;;25.54;34.71
11621;BME280;5866;49.094;11.900;2023-05-25T11:41:53;96720.84;;;25.36;35.16
11621;BME280;5866;49.094;11.900;2023-05-25T11:44:26;96707.22;;;25.75;35.05
11621;BME280;5866;49.094;11.900;2023-05-25T11:46:59;96704.66;;;26.35;33.11
11621;BME280;5866;49.094;11.900;2023-05-25T11:49:27;96707.09;;;25.14;37.88
11621;BME280;5866;49.094;11.900;2023-05-25T11:51:56;96715.53;;;25.85;34.56
11621;BME280;5866;49.094;11.900;2023-05-25T11:54:26;96712.13;;;24.94;35.07
11621;BME280;5866;49.094;11.900;2023-05-25T11:56:54;96710.72;;;23.99;37.52
11621;BME280;5866;49.094;11.900;2023-05-25T11:59:25;96711.34;;;23.30;37.11
11621;BME280;5866;49.094;11.900;2023-05-25T12:01:58;96704.50;;;25.19;35.01
11621;BME280;5866;49.094;11.900;2023-05-25T12:04:26;96706.38;;;24.90;36.01
11621;BME280;5866;49.094;11.900;2023-05-25T12:07:00;96711.50;;;25.43;35.73
11621;BME280;5866;49.094;11.900;2023-05-25T12:09:30;96698.34;;;25.52;34.33
11621;BME280;5866;49.094;11.900;2023-05-25T12:11:58;96693.22;;;26.17;34.79
11621;BME280;5866;49.094;11.900;2023-05-25T12:14:26;96684.50;;;26.15;34.16
11621;BME280;5866;49.094;11.900;2023-05-25T12:16:53;96696.56;;;25.01;35.72
11621;BME280;5866;49.094;11.900;2023-05-25T12:19:21;96708.00;;;25.03;36.48
11621;BME280;5866;49.094;11.900;2023-05-25T12:21:49;96686.81;;;26.61;35.36
11621;BME280;5866;49.094;11.900;2023-05-25T12:24:17;96690.47;;;24.59;36.26
11621;BME280;5866;49.094;11.900;2023-05-25T12:26:47;96684.59;;;24.74;36.68
11621;BME280;5866;49.094;11.900;2023-05-25T12:29:15;96679.38;;;25.85;36.75
11621;BME280;5866;49.094;11.900;2023-05-25T12:31:43;96682.09;;;26.35;33.35
11621;BME280;5866;49.094;11.900;2023-05-25T12:34:11;96697.03;;;26.16;34.07
11621;BME280;5866;49.094;11.900;2023-05-25T12:36:41;96683.06;;;24.43;36.43
11621;BME280;5866;49.094;11.900;2023-05-25T12:39:10;96679.28;;;25.35;35.34
11621;BME280;5866;49.094;11.900;2023-05-25T12:41:47;96690.31;;;25.73;34.75
11621;BME280;5866;49.094;11.900;2023-05-25T12:44:21;96684.47;;;26.31;35.26
11621;BME280;5866;49.094;11.900;2023-05-25T12:46:51;96685.22;;;25.77;35.03
11621;BME280;5866;49.094;11.900;2023-05-25T12:49:26;96688.22;;;25.19;35.54
11621;BME280;5866;49.094;11.900;2023-05-25T12:51:54;96684.06;;;23.73;38.42
11621;BME280;5866;49.094;11.900;2023-05-25T12:54:33;96686.47;;;24.38;36.95
11621;BME280;5866;49.094;11.900;2023-05-25T12:57:02;96684.66;;;24.90;35.47
11621;BME280;5866;49.094;11.900;2023-05-25T12:59:31;96683.75;;;25.41;35.99
11621;BME280;5866;49.094;11.900;2023-05-25T13:01:59;96678.69;;;24.30;35.85
11621;BME280;5866;49.094;11.900;2023-05-25T13:04:27;96676.97;;;24.13;37.07
11621;BME280;5866;49.094;11.900;2023-05-25T13:06:54;96681.91;;;24.27;37.93
11621;BME280;5866;49.094;11.900;2023-05-25T13:09:23;96683.78;;;24.27;36.67